createdAt,value
2018-10-19T00:00:32.925Z,15.67
2018-10-19T00:03:03.003Z,15.59
2018-10-19T00:05:32.866Z,15.56
2018-10-19T00:08:03.091Z,15.51
2018-10-19T00:10:32.999Z,15.49
2018-10-19T00:13:02.922Z,15.51
2018-10-19T00:15:32.802Z,15.53
2018-10-19T00:18:02.894Z,15.57
2018-10-19T00:20:32.884Z,15.58
2018-10-19T00:23:03.038Z,15.64
2018-10-19T00:25:33.107Z,15.59
2018-10-19T00:28:03.003Z,15.66
2018-10-19T00:30:32.941Z,15.74
2018-10-19T00:33:03.044Z,15.75
2018-10-19T00:35:32.962Z,15.80
2018-10-19T00:38:03.091Z,15.81
2018-10-19T00:40:33.172Z,15.88
2018-10-19T00:49:42.771Z,15.68
2018-10-19T00:52:11.919Z,15.74
2018-10-19T00:54:41.079Z,15.69
2018-10-19T00:57:10.327Z,15.69
2018-10-19T00:59:39.817Z,15.63
2018-10-19T01:02:09.039Z,15.64
2018-10-19T01:04:38.195Z,15.60
2018-10-19T01:07:07.351Z,15.63
2018-10-19T01:09:36.507Z,15.68
2018-10-19T01:12:06.203Z,15.67
2018-10-19T01:14:35.363Z,15.64
2018-10-19T01:17:04.578Z,15.64
2018-10-19T01:19:33.690Z,15.66
2018-10-19T01:22:03.223Z,15.67
2018-10-19T01:24:33.004Z,15.62
2018-10-19T01:27:02.245Z,15.60
2018-10-19T01:31:59.551Z,15.46
2018-10-19T01:34:28.728Z,15.43
2018-10-19T01:36:57.874Z,15.46
2018-10-19T01:39:27.043Z,15.50
2018-10-19T01:41:56.254Z,15.40
2018-10-19T01:44:25.428Z,15.41
2018-10-19T01:46:54.689Z,15.26
2018-10-19T01:49:24.150Z,15.19
2018-10-19T01:51:53.310Z,15.19
2018-10-19T01:54:22.521Z,15.22
2018-10-19T01:56:51.690Z,15.13
2018-10-19T01:59:20.876Z,15.06
2018-10-19T02:01:50.043Z,14.76
2018-10-19T02:04:19.230Z,14.83
2018-10-19T02:06:48.383Z,14.54
2018-10-19T02:09:17.568Z,14.50
2018-10-19T02:11:46.839Z,14.40
2018-10-19T02:14:16.036Z,14.29
2018-10-19T02:16:45.211Z,14.32
2018-10-19T02:19:14.366Z,14.36
2018-10-19T02:21:43.706Z,14.43
2018-10-19T02:24:12.988Z,14.50
2018-10-19T02:26:42.160Z,14.56
2018-10-19T02:29:11.385Z,14.55
2018-10-19T02:31:40.575Z,14.43
2018-10-19T02:34:09.755Z,14.22
2018-10-19T02:36:38.894Z,14.27
2018-10-19T02:39:08.506Z,14.28
2018-10-19T02:41:37.628Z,14.35
2018-10-19T02:44:06.813Z,14.41
2018-10-19T02:46:35.963Z,14.37
2018-10-19T02:49:05.893Z,14.33
2018-10-19T02:51:35.383Z,14.38
2018-10-19T02:54:04.563Z,14.13
2018-10-19T02:56:33.805Z,14.09
2018-10-19T02:59:03.798Z,14.16
2018-10-19T03:01:33.147Z,14.17
2018-10-19T03:04:03.341Z,14.13
2018-10-19T03:06:33.204Z,14.10
2018-10-19T03:09:03.403Z,13.95
2018-10-19T03:11:33.305Z,14.11
2018-10-19T03:14:03.434Z,14.12
2018-10-19T03:16:34.005Z,14.04
2018-10-19T03:19:03.168Z,14.05
2018-10-19T03:21:33.200Z,14.04
2018-10-19T03:24:03.216Z,13.96
2018-10-19T03:26:33.154Z,13.99
2018-10-19T03:29:03.498Z,13.96
2018-10-19T03:31:33.189Z,13.92
2018-10-19T03:34:03.445Z,13.93
2018-10-19T03:36:33.238Z,13.84
2018-10-19T03:39:05.103Z,13.83
2018-10-19T03:41:34.435Z,13.88
2018-10-19T03:44:04.287Z,13.70
2018-10-19T03:46:33.577Z,13.72
2018-10-19T03:49:03.376Z,13.73
2018-10-19T03:51:33.409Z,13.71
2018-10-19T03:54:03.352Z,13.68
2018-10-19T03:56:33.558Z,13.75
2018-10-19T03:59:03.682Z,13.85
2018-10-19T04:01:33.342Z,13.88
2018-10-19T04:04:03.524Z,13.91
2018-10-19T04:06:33.695Z,13.84
2018-10-19T04:09:03.534Z,13.82
2018-10-19T04:11:33.470Z,13.81
2018-10-19T04:14:03.357Z,13.75
2018-10-19T04:16:33.410Z,13.77
2018-10-19T04:19:03.306Z,13.68
2018-10-19T04:21:33.658Z,13.69
2018-10-19T04:24:03.672Z,13.65
2018-10-19T04:26:33.332Z,13.59
2018-10-19T04:29:03.671Z,13.58
2018-10-19T04:31:33.579Z,13.69
2018-10-19T04:34:03.508Z,13.62
2018-10-19T04:36:33.661Z,13.67
2018-10-19T04:39:03.602Z,13.64
2018-10-19T04:41:33.495Z,13.63
2018-10-19T04:44:03.519Z,13.62
2018-10-19T04:46:33.627Z,13.64
2018-10-19T04:49:03.653Z,13.49
2018-10-19T04:51:33.423Z,13.42
2018-10-19T04:54:03.432Z,13.36
2018-10-19T04:56:33.477Z,13.41
2018-10-19T04:59:03.622Z,13.25
2018-10-19T05:01:33.643Z,13.29
2018-10-19T05:04:03.437Z,13.36
2018-10-19T05:06:33.750Z,13.28
2018-10-19T05:09:05.114Z,13.29
2018-10-19T05:11:34.267Z,13.25
2018-10-19T05:14:03.533Z,13.10
2018-10-19T05:16:33.867Z,13.13
2018-10-19T05:19:03.623Z,13.18
2018-10-19T05:21:33.543Z,13.29
2018-10-19T05:24:03.515Z,13.25
2018-10-19T05:26:33.695Z,13.12
2018-10-19T05:29:03.516Z,13.16
2018-10-19T05:31:33.466Z,13.28
2018-10-19T05:34:03.414Z,13.18
2018-10-19T05:36:33.647Z,13.18
2018-10-19T05:39:03.566Z,13.18
2018-10-19T05:41:33.434Z,13.17
2018-10-19T05:44:03.737Z,13.10
2018-10-19T05:46:33.429Z,13.10
2018-10-19T05:49:03.496Z,13.21
2018-10-19T05:51:33.520Z,13.23
2018-10-19T05:54:03.518Z,13.32
2018-10-19T05:56:33.991Z,13.37
2018-10-19T05:59:03.499Z,13.48
2018-10-19T06:01:33.477Z,13.40
2018-10-19T06:04:03.475Z,13.39
2018-10-19T06:06:33.750Z,13.44
2018-10-19T06:09:03.581Z,13.45
2018-10-19T06:11:33.552Z,13.53
2018-10-19T06:14:03.610Z,13.62
2018-10-19T06:16:33.637Z,13.59
2018-10-19T06:19:03.515Z,13.53
2018-10-19T06:21:33.621Z,13.51
2018-10-19T06:24:03.619Z,13.60
2018-10-19T06:26:33.720Z,13.66
2018-10-19T06:29:03.769Z,13.62
2018-10-19T06:31:33.746Z,13.62
2018-10-19T06:34:03.596Z,13.58
2018-10-19T06:36:33.548Z,13.61
2018-10-19T06:39:03.629Z,13.68
2018-10-19T06:41:33.582Z,13.62
2018-10-19T06:44:03.915Z,13.67
2018-10-19T06:46:33.822Z,13.66
2018-10-19T06:49:03.713Z,13.59
2018-10-19T06:51:33.574Z,13.57
2018-10-19T06:54:03.593Z,13.54
2018-10-19T06:56:33.690Z,13.48
2018-10-19T06:59:03.760Z,13.49
2018-10-19T07:01:33.687Z,13.43
2018-10-19T07:04:03.730Z,13.49
2018-10-19T07:06:33.775Z,13.52
2018-10-19T07:09:04.758Z,13.52
2018-10-19T07:11:34.154Z,13.57
2018-10-19T07:14:03.775Z,13.62
2018-10-19T07:16:33.676Z,13.68
2018-10-19T07:19:03.707Z,13.66
2018-10-19T07:21:33.740Z,13.63
2018-10-19T07:24:03.782Z,13.70
2018-10-19T07:26:33.800Z,13.64
2018-10-19T07:29:04.288Z,13.65
2018-10-19T07:31:33.686Z,13.80
2018-10-19T07:34:03.751Z,13.79
2018-10-19T07:36:33.807Z,13.78
2018-10-19T07:39:04.806Z,13.77
2018-10-19T07:41:34.016Z,13.91
2018-10-19T07:44:04.497Z,13.91
2018-10-19T07:46:33.848Z,13.97
2018-10-19T07:49:03.852Z,13.99
2018-10-19T07:51:33.727Z,14.06
2018-10-19T07:54:04.210Z,14.07
2018-10-19T07:56:33.816Z,14.07
2018-10-19T07:59:03.795Z,14.03
2018-10-19T08:01:33.795Z,14.06
2018-10-19T08:04:03.790Z,14.06
2018-10-19T08:06:33.840Z,14.06
2018-10-19T08:09:04.686Z,14.16
2018-10-19T08:11:33.956Z,14.25
2018-10-19T08:14:03.871Z,14.28
2018-10-19T08:16:34.152Z,14.29
2018-10-19T08:19:03.849Z,14.27
2018-10-19T08:21:33.875Z,14.33
2018-10-19T08:24:03.847Z,14.41
2018-10-19T08:26:33.916Z,14.57
2018-10-19T08:29:04.116Z,14.57
2018-10-19T08:31:33.825Z,14.50
2018-10-19T08:34:03.816Z,14.58
2018-10-19T08:36:33.852Z,14.63
2018-10-19T08:39:04.508Z,14.55
2018-10-19T08:41:33.960Z,14.54
2018-10-19T08:44:03.873Z,14.51
2018-10-19T08:46:41.207Z,14.52
2018-10-19T08:49:11.680Z,14.48
2018-10-19T08:51:41.858Z,14.59
2018-10-19T08:54:11.182Z,14.63
2018-10-19T08:56:41.111Z,14.71
2018-10-19T08:59:10.468Z,14.83
2018-10-19T09:01:39.886Z,14.85
2018-10-19T09:04:09.069Z,14.98
2018-10-19T09:06:38.355Z,15.03
2018-10-19T09:09:10.536Z,15.06
2018-10-19T09:11:40.235Z,15.12
2018-10-19T09:14:26.596Z,15.09
2018-10-19T09:16:55.800Z,15.12
2018-10-19T09:19:24.921Z,15.29
2018-10-19T09:21:54.234Z,15.45
2018-10-19T09:24:23.463Z,15.49
2018-10-19T09:26:52.655Z,15.59
2018-10-19T09:29:21.878Z,15.68
2018-10-19T09:31:51.032Z,15.81
2018-10-19T09:34:20.192Z,15.97
2018-10-19T09:36:49.546Z,16.01
2018-10-19T09:39:18.577Z,16.24
2018-10-19T09:41:47.748Z,16.33
2018-10-19T09:44:16.918Z,16.42
2018-10-19T09:46:46.070Z,16.45
2018-10-19T09:49:15.475Z,16.50
2018-10-19T09:51:44.497Z,16.68
2018-10-19T09:54:13.658Z,16.87
2018-10-19T09:56:42.842Z,16.99
2018-10-19T09:59:12.075Z,17.11
2018-10-19T10:01:42.036Z,17.13
2018-10-19T10:04:11.208Z,17.17
2018-10-19T10:06:40.416Z,17.24
2018-10-19T10:09:12.842Z,17.35
2018-10-19T10:11:42.309Z,17.43
2018-10-19T10:14:12.024Z,17.52
2018-10-19T10:16:41.432Z,17.57
2018-10-19T10:19:10.628Z,17.51
2018-10-19T10:21:39.896Z,17.67
2018-10-19T10:24:09.067Z,17.79
2018-10-19T10:26:38.227Z,17.78
2018-10-19T10:29:07.768Z,17.95
2018-10-19T10:31:37.111Z,18.04
2018-10-19T10:34:06.759Z,18.19
2018-10-19T10:36:35.850Z,18.24
2018-10-19T10:39:09.514Z,18.29
2018-10-19T10:41:38.981Z,18.30
2018-10-19T10:44:08.147Z,18.34
2018-10-19T10:46:37.303Z,18.33
2018-10-19T10:49:07.052Z,18.31
2018-10-19T10:51:36.136Z,18.29
2018-10-19T10:54:05.600Z,18.28
2018-10-19T10:56:35.045Z,18.29
2018-10-19T10:59:05.218Z,18.29
2018-10-19T11:01:34.363Z,18.40
2018-10-19T11:04:04.166Z,18.44
2018-10-19T11:06:34.204Z,18.51
2018-10-19T11:09:05.022Z,18.47
2018-10-19T11:11:34.226Z,18.53
2018-10-19T11:14:04.212Z,18.56
2018-10-19T11:16:34.106Z,18.73
2018-10-19T11:19:04.163Z,18.81
2018-10-19T11:21:34.200Z,18.82
2018-10-19T11:24:04.262Z,18.72
2018-10-19T11:26:34.188Z,18.72
2018-10-19T11:29:04.131Z,18.81
2018-10-19T11:31:34.221Z,18.84
2018-10-19T11:34:04.187Z,18.79
2018-10-19T11:36:34.234Z,18.82
2018-10-19T11:39:05.256Z,18.84
2018-10-19T11:41:34.465Z,18.91
2018-10-19T11:44:04.347Z,18.96
2018-10-19T11:46:34.272Z,19.02
2018-10-19T11:49:04.267Z,19.05
2018-10-19T11:51:34.316Z,19.01
2018-10-19T11:54:04.331Z,19.16
2018-10-19T11:56:34.279Z,19.21
2018-10-19T11:59:04.247Z,19.35
2018-10-19T12:01:34.210Z,19.32
2018-10-19T12:04:04.353Z,19.30
2018-10-19T12:06:34.203Z,19.34
2018-10-19T12:09:05.169Z,19.32
2018-10-19T12:11:34.326Z,19.35
2018-10-19T12:14:04.391Z,19.34
2018-10-19T12:16:34.271Z,19.37
2018-10-19T12:19:04.279Z,19.41
2018-10-19T12:21:34.254Z,19.36
2018-10-19T12:24:04.321Z,19.44
2018-10-19T12:26:34.319Z,19.42
2018-10-19T12:29:04.573Z,19.51
2018-10-19T12:31:34.332Z,19.49
2018-10-19T12:34:04.388Z,19.57
2018-10-19T12:36:34.368Z,19.61
2018-10-19T12:39:05.791Z,19.58
2018-10-19T12:41:34.902Z,19.59
2018-10-19T12:44:04.291Z,19.66
2018-10-19T12:46:52.631Z,19.66
2018-10-19T12:49:23.256Z,19.74
2018-10-19T12:51:52.498Z,19.79
2018-10-19T12:54:21.735Z,19.81
2018-10-19T12:56:50.888Z,19.78
2018-10-19T12:59:20.155Z,19.75
2018-10-19T13:01:49.457Z,19.68
2018-10-19T13:04:18.655Z,19.72
2018-10-19T13:06:47.828Z,19.62
2018-10-19T13:09:17.145Z,19.66
2018-10-19T13:11:46.195Z,19.65
2018-10-19T13:14:15.383Z,19.64
2018-10-19T13:16:44.575Z,19.68
2018-10-19T13:19:14.235Z,19.71
2018-10-19T13:21:43.362Z,19.78
2018-10-19T13:24:12.588Z,19.79
2018-10-19T13:26:41.694Z,19.79
2018-10-19T13:29:10.848Z,19.77
2018-10-19T13:31:40.432Z,19.82
2018-10-19T13:34:09.641Z,19.82
2018-10-19T13:36:38.828Z,19.80
2018-10-19T13:39:10.499Z,19.84
2018-10-19T13:41:40.102Z,19.84
2018-10-19T13:44:09.463Z,19.84
2018-10-19T13:46:44.519Z,19.79
2018-10-19T13:49:13.670Z,19.79
2018-10-19T13:51:42.834Z,19.80
2018-10-19T13:54:12.004Z,19.72
2018-10-19T13:56:41.164Z,19.81
2018-10-19T13:59:10.339Z,19.84
2018-10-19T14:01:39.508Z,19.86
2018-10-19T14:04:08.668Z,19.89
2018-10-19T14:06:37.831Z,19.84
2018-10-19T14:09:09.701Z,19.83
2018-10-19T14:11:39.459Z,19.87
2018-10-19T14:14:08.610Z,19.91
2018-10-19T14:16:37.883Z,19.94
2018-10-19T14:19:07.091Z,19.92
2018-10-19T14:21:36.272Z,19.86
2018-10-19T14:24:05.426Z,19.85
2018-10-19T14:26:34.660Z,19.87
2018-10-19T14:29:04.930Z,19.86
2018-10-19T14:31:34.484Z,19.84
2018-10-19T14:34:04.916Z,19.82
2018-10-19T14:36:34.602Z,19.80
2018-10-19T14:39:04.979Z,19.84
2018-10-19T14:41:34.579Z,19.84
2018-10-19T14:44:04.632Z,19.79
2018-10-19T14:46:34.496Z,19.79
2018-10-19T14:49:05.080Z,19.78
2018-10-19T14:51:34.583Z,19.72
2018-10-19T14:54:04.744Z,19.78
2018-10-19T14:56:34.690Z,19.74
2018-10-19T14:59:05.271Z,19.78
2018-10-19T15:01:34.591Z,19.74
2018-10-19T15:04:04.902Z,19.67
2018-10-19T15:06:34.580Z,19.71
2018-10-19T15:09:06.039Z,19.66
2018-10-19T15:11:35.492Z,19.61
2018-10-19T15:14:04.619Z,19.65
2018-10-19T15:16:34.690Z,19.64
2018-10-19T15:19:04.634Z,19.62
2018-10-19T15:21:34.731Z,19.59
2018-10-19T15:24:04.884Z,19.59
2018-10-19T15:26:34.604Z,19.52
2018-10-19T15:29:04.721Z,19.54
2018-10-19T15:31:35.040Z,19.51
2018-10-19T15:34:04.676Z,19.52
2018-10-19T15:36:34.667Z,19.50
2018-10-19T15:39:06.101Z,19.49
2018-10-19T15:41:35.349Z,19.42
2018-10-19T15:44:04.655Z,19.39
2018-10-19T15:46:34.656Z,19.36
2018-10-19T15:49:04.880Z,19.34
2018-10-19T15:51:34.675Z,19.32
2018-10-19T15:54:04.711Z,19.31
2018-10-19T15:56:34.864Z,19.29
2018-10-19T15:59:05.093Z,19.25
2018-10-19T16:01:34.667Z,19.21
2018-10-19T16:04:04.793Z,19.14
2018-10-19T16:06:34.693Z,19.11
2018-10-19T16:09:07.792Z,19.02
2018-10-19T16:11:36.895Z,19.00
2018-10-19T16:14:06.286Z,18.99
2018-10-19T16:16:35.430Z,18.98
2018-10-19T16:19:04.932Z,18.97
2018-10-19T16:21:34.764Z,18.93
2018-10-19T16:24:05.067Z,18.83
2018-10-19T16:26:34.762Z,18.81
2018-10-19T16:29:05.100Z,18.74
2018-10-19T16:31:34.846Z,18.66
2018-10-19T16:34:04.858Z,18.57
2018-10-19T16:36:34.795Z,18.53
2018-10-19T16:39:06.489Z,18.50
2018-10-19T16:41:35.582Z,18.43
2018-10-19T16:44:05.286Z,18.35
2018-10-19T16:46:35.070Z,18.29
2018-10-19T16:49:05.517Z,18.29
2018-10-19T16:51:34.940Z,18.25
2018-10-19T16:54:04.899Z,18.19
2018-10-19T16:56:34.811Z,18.06
2018-10-19T16:59:05.095Z,18.03
2018-10-19T17:01:34.859Z,17.95
2018-10-19T17:04:05.184Z,17.84
2018-10-19T17:06:34.778Z,17.80
2018-10-19T17:09:08.937Z,17.67
2018-10-19T17:11:38.245Z,17.54
2018-10-19T17:14:07.493Z,17.40
2018-10-19T17:16:36.948Z,17.34
2018-10-19T17:19:06.461Z,17.32
2018-10-19T17:21:35.566Z,17.29
2018-10-19T17:24:05.294Z,17.21
2018-10-19T17:26:35.003Z,17.24
2018-10-19T17:29:05.102Z,17.18
2018-10-19T17:31:34.966Z,17.06
2018-10-19T17:34:04.982Z,16.98
2018-10-19T17:36:35.871Z,16.98
2018-10-19T17:39:08.118Z,16.96
2018-10-19T17:41:37.228Z,16.96
2018-10-19T17:44:07.101Z,16.89
2018-10-19T17:46:36.281Z,16.88
2018-10-19T17:49:06.192Z,16.84
2018-10-19T17:51:35.331Z,16.77
2018-10-19T17:54:05.197Z,16.65
2018-10-19T17:56:34.858Z,16.65
2018-10-19T17:59:05.054Z,16.67
2018-10-19T18:01:35.108Z,16.69
2018-10-19T18:04:05.135Z,16.71
2018-10-19T18:06:34.904Z,16.61
2018-10-19T18:09:08.288Z,16.54
2018-10-19T18:11:37.560Z,16.50
2018-10-19T18:14:06.771Z,16.55
2018-10-19T18:16:35.996Z,16.34
2018-10-19T18:19:05.424Z,16.34
2018-10-19T18:21:34.995Z,16.19
2018-10-19T18:24:05.076Z,16.21
2018-10-19T18:26:34.901Z,16.05
2018-10-19T18:29:05.160Z,16.13
2018-10-19T18:31:34.995Z,16.17
2018-10-19T18:34:04.992Z,16.08
2018-10-19T18:36:34.927Z,16.06
2018-10-19T18:39:08.040Z,16.11
2018-10-19T18:41:37.454Z,15.97
2018-10-19T18:44:07.389Z,15.94
2018-10-19T18:46:36.663Z,15.91
2018-10-19T18:49:08.016Z,15.84
2018-10-19T18:51:37.323Z,15.79
2018-10-19T18:54:06.825Z,15.75
2018-10-19T18:56:36.032Z,15.72
2018-10-19T18:59:05.286Z,15.79
2018-10-19T19:01:35.133Z,15.85
2018-10-19T19:04:05.135Z,15.77
2018-10-19T19:06:35.028Z,15.64
2018-10-19T19:09:09.646Z,15.67
2018-10-19T19:11:38.943Z,15.68
2018-10-19T19:14:08.147Z,15.66
2018-10-19T19:16:37.312Z,15.56
2018-10-19T19:19:06.591Z,15.71
2018-10-19T19:21:35.858Z,15.70
2018-10-19T19:24:10.412Z,15.69
2018-10-19T19:26:39.590Z,15.47
2018-10-19T19:29:08.794Z,15.50
2018-10-19T19:31:37.908Z,15.41
2018-10-19T19:34:12.504Z,15.45
2018-10-19T19:36:41.735Z,15.38
2018-10-19T19:39:11.037Z,15.45
2018-10-19T19:41:45.484Z,15.30
2018-10-19T19:44:14.670Z,15.32
2018-10-19T19:46:43.780Z,15.33
2018-10-19T19:49:18.263Z,15.33
2018-10-19T19:51:47.412Z,15.31
2018-10-19T19:54:16.555Z,15.30
2018-10-19T19:56:45.731Z,15.27
2018-10-19T19:59:14.942Z,15.25
2018-10-19T20:01:44.048Z,15.17
2018-10-19T20:04:13.238Z,15.09
2018-10-19T20:06:42.449Z,15.13
2018-10-19T20:09:11.592Z,15.02
2018-10-19T20:11:40.780Z,15.06
2018-10-19T20:14:10.135Z,15.08
2018-10-19T20:16:39.222Z,15.07
2018-10-19T20:19:08.372Z,15.06
2018-10-19T20:21:37.632Z,14.95
2018-10-19T20:24:06.775Z,14.76
2018-10-19T20:26:35.931Z,14.83
2018-10-19T20:29:05.196Z,14.85
2018-10-19T20:31:35.174Z,14.87
2018-10-19T20:34:05.205Z,14.86
2018-10-19T20:36:35.219Z,14.81
2018-10-19T20:39:07.432Z,14.79
2018-10-19T20:41:36.587Z,14.77
2018-10-19T20:44:05.923Z,14.76
2018-10-19T20:46:35.188Z,14.74
2018-10-19T20:49:06.145Z,14.71
2018-10-19T20:51:35.384Z,14.67
2018-10-19T20:54:05.395Z,14.79
2018-10-19T20:56:35.333Z,14.73
2018-10-19T20:59:05.397Z,14.77
2018-10-19T21:01:35.178Z,14.75
2018-10-19T21:04:05.413Z,14.73
2018-10-19T21:06:35.272Z,14.62
2018-10-19T21:09:08.218Z,14.65
2018-10-19T21:11:37.854Z,14.59
2018-10-19T21:14:07.164Z,14.71
2018-10-19T21:16:36.283Z,14.64
2018-10-19T21:19:05.691Z,14.60
2018-10-19T21:21:35.273Z,14.60
2018-10-19T21:24:05.341Z,14.43
2018-10-19T21:31:38.652Z,14.24
2018-10-19T21:34:07.820Z,14.35
2018-10-19T21:36:36.971Z,14.31
2018-10-19T21:39:09.174Z,14.30
2018-10-19T21:41:38.348Z,14.38
2018-10-19T21:44:07.559Z,14.42
2018-10-19T21:46:36.655Z,14.41
2018-10-19T21:49:06.732Z,14.43
2018-10-19T21:51:35.925Z,14.32
2018-10-19T21:54:05.983Z,14.35
2018-10-19T21:56:35.439Z,14.29
2018-10-19T21:59:05.343Z,14.35
2018-10-19T22:01:35.342Z,14.38
2018-10-19T22:04:05.624Z,14.30
2018-10-19T22:06:35.319Z,14.25
2018-10-19T22:09:09.329Z,14.13
2018-10-19T22:11:39.196Z,14.11
2018-10-19T22:14:08.911Z,14.27
2018-10-19T22:16:38.254Z,14.25
2018-10-19T22:19:08.151Z,14.19
2018-10-19T22:21:37.322Z,14.11
2018-10-19T22:24:07.758Z,14.19
2018-10-19T22:26:36.908Z,14.16
2018-10-19T22:29:06.389Z,14.18
2018-10-19T22:31:35.522Z,14.16
2018-10-19T22:34:05.625Z,14.13
2018-10-19T22:41:41.764Z,13.81
2018-10-19T22:44:11.163Z,13.84
2018-10-19T22:46:40.308Z,13.80
2018-10-19T22:49:11.150Z,13.96
2018-10-19T22:51:40.206Z,13.77
2018-10-19T22:54:09.376Z,13.80
2018-10-19T22:56:38.587Z,13.78
2018-10-19T22:59:07.745Z,13.81
2018-10-19T23:01:36.870Z,13.73
2018-10-19T23:04:06.886Z,13.77
2018-10-19T23:06:36.070Z,13.70
2018-10-19T23:09:08.179Z,13.76
2018-10-19T23:11:37.311Z,13.72
2018-10-19T23:14:06.645Z,13.81
2018-10-19T23:16:35.804Z,13.77
2018-10-19T23:19:05.692Z,13.65
2018-10-19T23:21:35.758Z,13.75
2018-10-19T23:24:06.195Z,13.81
2018-10-19T23:26:35.468Z,13.81
2018-10-19T23:29:05.899Z,13.59
2018-10-19T23:31:35.585Z,13.62
2018-10-19T23:34:05.931Z,13.63
2018-10-19T23:36:35.610Z,13.61
2018-10-19T23:39:08.576Z,13.65
2018-10-19T23:41:37.774Z,13.65
2018-10-19T23:44:06.914Z,13.60
2018-10-19T23:46:36.131Z,13.58
2018-10-19T23:49:05.941Z,13.54
2018-10-19T23:51:35.460Z,13.65
2018-10-19T23:54:05.680Z,13.48
2018-10-19T23:56:35.576Z,13.51
2018-10-19T23:59:06.079Z,13.61
